createdAt,value
2023-07-29T00:00:24.508Z,100454.47
2023-07-29T00:03:16.560Z,100458.09
2023-07-29T00:05:54.989Z,100452.88
2023-07-29T00:08:26.942Z,100447.88
2023-07-29T00:11:01.809Z,100455.94
2023-07-29T00:13:36.332Z,100451.63
2023-07-29T00:16:11.271Z,100452.72
2023-07-29T00:18:45.609Z,100448.03
2023-07-29T00:21:21.206Z,100453.72
2023-07-29T00:23:53.069Z,100446.41
2023-07-29T00:26:30.881Z,100442.88
2023-07-29T00:29:02.983Z,100441.84
2023-07-29T00:31:35.194Z,100445.84
2023-07-29T00:34:07.106Z,100437.25
2023-07-29T00:36:39.423Z,100438.97
2023-07-29T00:39:11.588Z,100442.97
2023-07-29T00:41:46.552Z,100443.41
2023-07-29T00:44:18.370Z,100447.00
2023-07-29T00:46:51.712Z,100446.22
2023-07-29T00:49:24.045Z,100446.00
2023-07-29T00:51:56.292Z,100442.75
2023-07-29T00:54:28.250Z,100451.28
2023-07-29T00:57:03.092Z,100444.38
2023-07-29T00:59:36.288Z,100437.50
2023-07-29T01:02:10.736Z,100435.84
2023-07-29T01:04:42.650Z,100438.56
2023-07-29T01:07:26.910Z,100427.03
2023-07-29T01:10:04.901Z,100426.97
2023-07-29T01:12:51.651Z,100416.53
2023-07-29T01:15:29.194Z,100420.81
2023-07-29T01:18:15.511Z,100421.84
2023-07-29T01:20:51.508Z,100423.31
2023-07-29T01:23:34.170Z,100413.09
2023-07-29T01:26:07.275Z,100402.44
2023-07-29T01:28:39.842Z,100400.53
2023-07-29T01:31:21.030Z,100394.09
2023-07-29T01:34:02.268Z,100400.81
2023-07-29T01:36:40.153Z,100397.25
2023-07-29T01:39:16.690Z,100407.28
2023-07-29T01:41:50.049Z,100412.13
2023-07-29T01:44:23.728Z,100409.19
2023-07-29T01:46:56.237Z,100413.78
2023-07-29T01:49:28.878Z,100421.31
2023-07-29T01:52:01.209Z,100414.19
2023-07-29T01:54:36.411Z,100414.63
2023-07-29T01:57:08.838Z,100419.63
2023-07-29T01:59:42.002Z,100414.88
2023-07-29T02:02:14.301Z,100419.69
2023-07-29T02:04:46.857Z,100422.63
2023-07-29T02:07:19.066Z,100415.53
2023-07-29T02:09:55.588Z,100417.22
2023-07-29T02:12:28.052Z,100422.44
2023-07-29T02:15:00.594Z,100420.34
2023-07-29T02:17:32.899Z,100420.34
2023-07-29T02:20:08.896Z,100417.66
2023-07-29T02:22:41.291Z,100414.50
2023-07-29T02:25:17.635Z,100415.34
2023-07-29T02:27:49.907Z,100414.03
2023-07-29T02:30:22.696Z,100412.38
2023-07-29T02:32:55.013Z,100416.41
2023-07-29T02:35:27.622Z,100413.25
2023-07-29T02:37:59.849Z,100416.41
2023-07-29T02:40:39.598Z,100410.78
2023-07-29T02:43:11.896Z,100413.06
2023-07-29T02:45:45.470Z,100407.22
2023-07-29T02:48:24.151Z,100403.69
2023-07-29T02:51:00.348Z,100409.63
2023-07-29T02:53:32.630Z,100408.38
2023-07-29T02:56:14.168Z,100405.22
2023-07-29T02:58:48.668Z,100403.31
2023-07-29T03:01:23.277Z,100407.06
2023-07-29T03:04:01.533Z,100410.63
2023-07-29T03:06:34.312Z,100412.31
2023-07-29T03:09:06.731Z,100420.63
2023-07-29T03:11:41.856Z,100418.75
2023-07-29T03:14:14.290Z,100414.16
2023-07-29T03:16:46.764Z,100416.47
2023-07-29T03:19:19.968Z,100411.66
2023-07-29T03:21:52.448Z,100408.13
2023-07-29T03:24:24.687Z,100408.09
2023-07-29T03:27:02.066Z,100413.50
2023-07-29T03:29:37.176Z,100410.81
2023-07-29T03:32:10.225Z,100406.22
2023-07-29T03:34:42.671Z,100397.88
2023-07-29T03:37:15.308Z,100401.56
2023-07-29T03:39:47.529Z,100404.50
2023-07-29T03:42:22.630Z,100399.50
2023-07-29T03:44:54.825Z,100402.44
2023-07-29T03:47:27.340Z,100400.31
2023-07-29T03:49:59.624Z,100402.44
2023-07-29T03:52:35.046Z,100393.63
2023-07-29T03:55:07.828Z,100394.66
2023-07-29T03:57:42.971Z,100389.66
2023-07-29T04:00:15.729Z,100399.66
2023-07-29T04:02:48.281Z,100400.47
2023-07-29T04:05:20.729Z,100391.69
2023-07-29T04:07:54.588Z,100395.69
2023-07-29T04:10:26.846Z,100400.22
2023-07-29T04:13:02.053Z,100389.75
2023-07-29T04:15:49.884Z,100388.53
2023-07-29T04:18:22.571Z,100382.19
2023-07-29T04:20:54.757Z,100394.88
2023-07-29T04:23:30.342Z,100384.41
2023-07-29T04:26:18.726Z,100383.69
2023-07-29T04:29:06.168Z,100379.75
2023-07-29T04:31:38.594Z,100379.25
2023-07-29T04:34:11.229Z,100389.13
2023-07-29T04:36:43.458Z,100385.03
2023-07-29T04:39:16.093Z,100387.53
2023-07-29T04:41:48.357Z,100396.09
2023-07-29T04:44:23.531Z,100399.72
2023-07-29T04:46:55.744Z,100397.69
2023-07-29T04:49:28.268Z,100400.31
2023-07-29T04:52:00.605Z,100396.34
2023-07-29T04:54:33.053Z,100389.66
2023-07-29T04:57:05.409Z,100393.69
2023-07-29T04:59:40.569Z,100401.03
2023-07-29T05:02:15.110Z,100394.69
2023-07-29T05:04:52.550Z,100395.94
2023-07-29T05:07:24.750Z,100400.34
2023-07-29T05:09:57.225Z,100390.66
2023-07-29T05:12:33.507Z,100388.22
2023-07-29T05:15:13.489Z,100396.13
2023-07-29T05:17:45.783Z,100391.34
2023-07-29T05:20:21.684Z,100389.38
2023-07-29T05:22:55.167Z,100386.88
2023-07-29T05:25:27.665Z,100382.50
2023-07-29T05:27:59.984Z,100382.25
2023-07-29T05:30:45.109Z,100384.63
2023-07-29T05:33:21.017Z,100388.81
2023-07-29T05:35:56.470Z,100384.81
2023-07-29T05:38:28.838Z,100389.47
2023-07-29T05:41:02.405Z,100390.50
2023-07-29T05:43:34.615Z,100392.63
2023-07-29T05:46:09.809Z,100391.03
2023-07-29T05:48:42.194Z,100389.31
2023-07-29T05:51:14.755Z,100394.91
2023-07-29T05:53:47.004Z,100381.78
2023-07-29T05:56:19.570Z,100392.06
2023-07-29T05:58:51.894Z,100380.19
2023-07-29T06:01:27.863Z,100374.72
2023-07-29T06:04:00.257Z,100366.91
2023-07-29T06:06:35.160Z,100361.78
2023-07-29T06:09:09.513Z,100356.75
2023-07-29T06:11:42.088Z,100357.50
2023-07-29T06:14:14.407Z,100343.78
2023-07-29T06:16:49.625Z,100354.25
2023-07-29T06:19:22.925Z,100344.91
2023-07-29T06:22:00.148Z,100349.84
2023-07-29T06:24:32.486Z,100349.13
2023-07-29T06:27:05.159Z,100346.63
2023-07-29T06:29:37.490Z,100352.69
2023-07-29T06:32:15.002Z,100358.75
2023-07-29T06:35:01.994Z,100350.25
2023-07-29T06:37:34.829Z,100356.19
2023-07-29T06:40:11.323Z,100363.59
2023-07-29T06:42:43.889Z,100366.91
2023-07-29T06:45:17.070Z,100361.41
2023-07-29T06:47:55.772Z,100369.19
2023-07-29T06:50:42.346Z,100367.31
2023-07-29T06:53:19.028Z,100365.88
2023-07-29T06:55:51.387Z,100368.88
2023-07-29T06:58:24.089Z,100367.78
2023-07-29T07:00:57.723Z,100375.97
2023-07-29T07:03:33.312Z,100369.50
2023-07-29T07:06:07.110Z,100381.38
2023-07-29T07:08:39.689Z,100376.13
2023-07-29T07:11:12.189Z,100373.66
2023-07-29T07:13:44.786Z,100367.47
2023-07-29T07:16:17.057Z,100376.88
2023-07-29T07:18:52.166Z,100376.44
2023-07-29T07:21:26.822Z,100377.41
2023-07-29T07:23:59.426Z,100379.66
2023-07-29T07:26:31.772Z,100377.09
2023-07-29T07:29:04.393Z,100374.94
2023-07-29T07:31:39.575Z,100374.69
2023-07-29T07:34:14.836Z,100378.25
2023-07-29T07:36:46.728Z,100384.41
2023-07-29T07:39:19.048Z,100371.53
2023-07-29T07:41:51.028Z,100371.22
2023-07-29T07:44:23.359Z,100358.50
2023-07-29T07:46:55.295Z,100355.75
2023-07-29T07:49:30.194Z,100359.31
2023-07-29T07:52:02.088Z,100353.38
2023-07-29T07:54:36.907Z,100351.75
2023-07-29T07:57:10.108Z,100338.34
2023-07-29T07:59:42.353Z,100342.03
2023-07-29T08:02:16.748Z,100344.41
2023-07-29T08:04:51.605Z,100341.41
2023-07-29T08:07:23.547Z,100339.50
2023-07-29T08:09:55.815Z,100341.38
2023-07-29T08:12:27.792Z,100345.84
2023-07-29T08:15:00.050Z,100336.47
2023-07-29T08:17:31.983Z,100343.03
2023-07-29T08:20:07.822Z,100338.88
2023-07-29T08:22:39.933Z,100336.16
2023-07-29T08:25:12.867Z,100338.84
2023-07-29T08:30:40.671Z,100330.97
2023-07-29T08:33:13.668Z,100330.66
2023-07-29T08:35:52.730Z,100319.06
2023-07-29T08:38:28.307Z,100317.75
2023-07-29T08:41:09.196Z,100330.34
2023-07-29T08:43:43.949Z,100318.66
2023-07-29T08:46:17.578Z,100322.75
2023-07-29T08:48:51.043Z,100319.50
2023-07-29T08:51:29.532Z,100321.38
2023-07-29T08:54:02.589Z,100311.47
2023-07-29T08:56:35.408Z,100322.25
2023-07-29T08:59:07.947Z,100321.38
2023-07-29T09:01:43.237Z,100320.91
2023-07-29T09:04:17.160Z,100318.50
2023-07-29T09:06:54.567Z,100313.00
2023-07-29T09:09:26.508Z,100310.53
2023-07-29T09:11:58.839Z,100312.47
2023-07-29T09:14:32.230Z,100319.84
2023-07-29T09:17:04.705Z,100311.09
2023-07-29T09:19:40.587Z,100304.78
2023-07-29T09:35:02.725Z,100286.66
2023-07-29T09:37:38.627Z,100282.00
2023-07-29T09:40:17.972Z,100284.97
2023-07-29T09:42:55.010Z,100277.81
2023-07-29T09:45:30.229Z,100271.50
2023-07-29T09:48:03.055Z,100284.72
2023-07-29T09:50:55.326Z,100272.06
2023-07-29T09:53:30.393Z,100263.53
2023-07-29T09:56:07.317Z,100258.84
2023-07-29T09:58:43.309Z,100264.16
2023-07-29T10:01:18.019Z,100262.47
2023-07-29T10:03:51.656Z,100263.94
2023-07-29T10:06:27.553Z,100254.78
2023-07-29T10:09:00.798Z,100252.88
2023-07-29T10:11:34.376Z,100251.91
2023-07-29T10:14:09.119Z,100239.94
2023-07-29T10:16:46.736Z,100254.53
2023-07-29T10:19:23.271Z,100243.66
2023-07-29T10:22:00.649Z,100244.09
2023-07-29T10:24:36.630Z,100235.63
2023-07-29T10:27:11.308Z,100232.84
2023-07-29T10:29:50.144Z,100218.34
2023-07-29T10:32:27.768Z,100220.84
2023-07-29T10:35:00.210Z,100216.84
2023-07-29T10:37:34.927Z,100217.97
2023-07-29T10:40:12.411Z,100212.88
2023-07-29T10:43:05.626Z,100212.41
2023-07-29T10:45:46.833Z,100213.50
2023-07-29T10:48:45.224Z,100189.13
2023-07-29T10:51:41.768Z,100172.38
2023-07-29T10:54:18.890Z,100186.16
2023-07-29T10:56:56.843Z,100189.53
2023-07-29T10:59:38.011Z,100195.44
2023-07-29T11:02:21.788Z,100205.09
2023-07-29T11:04:55.735Z,100209.34
2023-07-29T11:07:30.652Z,100219.00
2023-07-29T11:10:10.409Z,100219.22
2023-07-29T11:12:48.834Z,100238.09
2023-07-29T11:15:23.173Z,100265.75
2023-07-29T11:17:58.225Z,100257.69
2023-07-29T11:20:39.236Z,100246.28
2023-07-29T11:23:11.616Z,100254.78
2023-07-29T11:25:49.146Z,100247.34
2023-07-29T11:28:24.257Z,100247.13
2023-07-29T11:30:56.616Z,100238.00
2023-07-29T11:33:30.359Z,100237.44
2023-07-29T11:36:02.487Z,100235.78
2023-07-29T11:38:38.427Z,100238.00
2023-07-29T11:41:13.047Z,100227.00
2023-07-29T11:43:45.352Z,100226.59
2023-07-29T11:46:17.299Z,100220.66
2023-07-29T11:48:49.800Z,100232.44
2023-07-29T11:51:22.025Z,100232.44
2023-07-29T11:53:54.472Z,100224.13
2023-07-29T11:56:33.737Z,100220.16
2023-07-29T11:59:09.130Z,100212.56
2023-07-29T12:01:41.130Z,100211.72
2023-07-29T12:04:14.322Z,100213.97
2023-07-29T12:06:46.792Z,100212.38
2023-07-29T12:09:19.129Z,100216.00
2023-07-29T12:11:56.417Z,100231.16
2023-07-29T12:14:31.548Z,100228.91
2023-07-29T12:17:05.918Z,100230.72
2023-07-29T12:19:40.652Z,100230.31
2023-07-29T12:22:14.266Z,100224.09
2023-07-29T12:24:47.243Z,100222.81
2023-07-29T12:27:22.108Z,100228.72
2023-07-29T12:29:57.637Z,100224.69
2023-07-29T12:32:31.180Z,100235.94
2023-07-29T12:35:03.868Z,100227.09
2023-07-29T12:37:40.409Z,100234.44
2023-07-29T12:40:25.095Z,100230.59
2023-07-29T12:43:02.316Z,100227.41
2023-07-29T12:45:41.523Z,100230.06
2023-07-29T12:48:18.594Z,100218.94
2023-07-29T12:50:53.512Z,100217.09
2023-07-29T12:53:28.252Z,100192.41
2023-07-29T12:56:02.590Z,100197.22
2023-07-29T12:58:37.532Z,100207.66
2023-07-29T13:01:24.323Z,100190.69
2023-07-29T13:04:11.074Z,100200.34
2023-07-29T13:06:46.008Z,100198.59
2023-07-29T13:09:18.213Z,100197.41
2023-07-29T13:11:51.194Z,100204.81
2023-07-29T13:14:27.691Z,100215.19
2023-07-29T13:17:00.450Z,100210.50
2023-07-29T13:19:34.936Z,100220.47
2023-07-29T13:22:09.806Z,100211.38
2023-07-29T13:24:42.427Z,100212.34
2023-07-29T13:27:15.049Z,100217.25
2023-07-29T13:29:50.276Z,100208.25
2023-07-29T13:32:22.814Z,100216.47
2023-07-29T13:34:55.175Z,100218.28
2023-07-29T13:37:29.787Z,100209.56
2023-07-29T13:40:05.131Z,100208.16
2023-07-29T13:42:37.727Z,100202.28
2023-07-29T13:45:13.828Z,100195.31
2023-07-29T13:47:46.505Z,100198.13
2023-07-29T13:50:22.400Z,100186.34
2023-07-29T13:52:55.107Z,100189.13
2023-07-29T13:55:32.185Z,100193.03
2023-07-29T13:58:05.089Z,100187.78
2023-07-29T14:00:47.408Z,100196.00
2023-07-29T14:03:20.588Z,100190.72
2023-07-29T14:05:55.486Z,100190.22
2023-07-29T14:08:28.592Z,100182.38
2023-07-29T14:11:00.912Z,100178.50
2023-07-29T14:13:36.095Z,100179.16
2023-07-29T14:16:11.303Z,100179.00
2023-07-29T14:18:45.948Z,100182.38
2023-07-29T14:21:20.947Z,100174.56
2023-07-29T14:23:54.328Z,100183.19
2023-07-29T14:26:27.344Z,100172.06
2023-07-29T14:29:00.547Z,100166.66
2023-07-29T14:31:38.294Z,100159.13
2023-07-29T14:34:15.522Z,100158.72
2023-07-29T14:36:54.787Z,100163.13
2023-07-29T14:39:27.113Z,100165.84
2023-07-29T14:41:59.187Z,100165.91
2023-07-29T14:44:31.907Z,100165.78
2023-07-29T14:47:08.518Z,100172.19
2023-07-29T14:49:43.891Z,100171.66
2023-07-29T14:52:16.088Z,100188.38
2023-07-29T14:54:48.313Z,100187.75
2023-07-29T14:57:23.517Z,100201.03
2023-07-29T14:59:56.288Z,100197.97
2023-07-29T15:02:31.236Z,100188.44
2023-07-29T15:05:03.951Z,100176.06
2023-07-29T15:07:35.928Z,100184.72
2023-07-29T15:10:09.456Z,100196.38
2023-07-29T15:12:41.350Z,100207.19
2023-07-29T15:15:14.511Z,100215.34
2023-07-29T15:17:49.296Z,100211.78
2023-07-29T15:20:21.739Z,100209.03
2023-07-29T15:22:53.790Z,100207.41
2023-07-29T15:25:26.198Z,100212.53
2023-07-29T15:27:59.636Z,100216.44
2023-07-29T15:33:27.515Z,100270.34
2023-07-29T15:36:02.692Z,100252.28
2023-07-29T15:38:38.826Z,100260.66
2023-07-29T15:41:14.713Z,100241.41
2023-07-29T15:43:46.693Z,100230.09
2023-07-29T15:46:19.240Z,100254.69
2023-07-29T15:48:54.107Z,100233.22
2023-07-29T15:51:26.875Z,100243.22
2023-07-29T15:54:01.875Z,100232.44
2023-07-29T15:56:38.019Z,100242.94
2023-07-29T15:59:10.188Z,100240.88
2023-07-29T16:01:42.562Z,100241.41
2023-07-29T16:04:17.076Z,100240.84
2023-07-29T16:06:49.359Z,100237.91
2023-07-29T16:09:22.697Z,100238.41
2023-07-29T16:11:55.079Z,100248.88
2023-07-29T16:14:27.104Z,100256.38
2023-07-29T16:16:59.467Z,100253.19
2023-07-29T16:19:35.066Z,100252.56
2023-07-29T16:22:17.057Z,100262.31
2023-07-29T16:24:52.764Z,100253.94
2023-07-29T16:27:25.516Z,100246.66
2023-07-29T16:29:57.803Z,100255.44
2023-07-29T16:32:30.616Z,100257.81
2023-07-29T16:35:05.698Z,100262.06
2023-07-29T16:37:40.563Z,100263.03
2023-07-29T16:40:13.959Z,100269.66
2023-07-29T16:42:49.757Z,100266.44
2023-07-29T16:45:22.019Z,100263.75
2023-07-29T16:47:57.811Z,100260.44
2023-07-29T16:50:32.777Z,100248.91
2023-07-29T16:53:05.362Z,100253.66
2023-07-29T16:55:37.599Z,100261.13
2023-07-29T16:58:10.159Z,100271.91
2023-07-29T17:00:42.162Z,100269.97
2023-07-29T17:03:14.966Z,100268.44
2023-07-29T17:05:54.655Z,100277.16
2023-07-29T17:08:26.914Z,100280.38
2023-07-29T17:10:58.831Z,100276.81
2023-07-29T17:13:31.155Z,100282.25
2023-07-29T17:16:06.308Z,100279.28
2023-07-29T17:18:40.403Z,100276.50
2023-07-29T17:21:14.994Z,100273.13
2023-07-29T17:23:53.684Z,100274.03
2023-07-29T17:26:25.486Z,100270.22
2023-07-29T17:28:57.801Z,100267.44
2023-07-29T17:31:29.740Z,100274.31
2023-07-29T17:34:02.276Z,100263.63
2023-07-29T17:36:37.015Z,100261.53
2023-07-29T17:39:09.977Z,100263.38
2023-07-29T17:41:42.214Z,100264.69
2023-07-29T17:44:14.578Z,100264.69
2023-07-29T17:46:46.548Z,100265.94
2023-07-29T17:49:18.948Z,100262.88
2023-07-29T17:51:53.550Z,100255.56
2023-07-29T17:54:31.474Z,100267.94
2023-07-29T17:57:08.488Z,100266.69
2023-07-29T17:59:40.758Z,100266.00
2023-07-29T18:02:15.728Z,100273.44
2023-07-29T18:04:51.065Z,100276.47
2023-07-29T18:07:25.617Z,100276.16
2023-07-29T18:09:57.975Z,100272.69
2023-07-29T18:12:29.908Z,100269.50
2023-07-29T18:15:02.284Z,100266.53
2023-07-29T18:17:34.213Z,100271.28
2023-07-29T18:20:07.085Z,100270.84
2023-07-29T18:22:41.665Z,100271.47
2023-07-29T18:25:16.622Z,100269.78
2023-07-29T18:27:48.395Z,100275.69
2023-07-29T18:30:20.643Z,100274.63
2023-07-29T18:32:52.655Z,100285.66
2023-07-29T18:35:24.984Z,100281.63
2023-07-29T18:38:08.483Z,100294.13
2023-07-29T18:40:41.796Z,100298.72
2023-07-29T18:43:13.837Z,100306.78
2023-07-29T18:45:47.720Z,100307.63
2023-07-29T18:48:24.921Z,100315.72
2023-07-29T18:50:57.348Z,100317.13
2023-07-29T18:53:34.600Z,100317.59
2023-07-29T18:56:28.137Z,100317.69
2023-07-29T18:59:01.514Z,100328.59
2023-07-29T19:01:36.601Z,100336.53
2023-07-29T19:04:09.764Z,100343.19
2023-07-29T19:06:42.221Z,100343.75
2023-07-29T19:09:17.617Z,100332.97
2023-07-29T19:11:49.932Z,100340.44
2023-07-29T19:14:22.720Z,100342.81
2023-07-29T19:16:55.021Z,100342.91
2023-07-29T19:19:27.700Z,100351.22
2023-07-29T19:22:01.019Z,100349.91
2023-07-29T19:24:43.783Z,100352.50
2023-07-29T19:27:16.696Z,100351.31
2023-07-29T19:29:54.636Z,100353.69
2023-07-29T19:32:28.710Z,100347.41
2023-07-29T19:35:01.743Z,100348.94
2023-07-29T19:37:34.481Z,100350.47
2023-07-29T19:40:11.341Z,100354.94
2023-07-29T19:42:49.117Z,100355.16
2023-07-29T19:45:23.247Z,100358.00
2023-07-29T19:47:58.060Z,100367.84
2023-07-29T19:50:33.761Z,100365.81
2023-07-29T19:53:08.526Z,100365.22
2023-07-29T19:55:44.141Z,100361.91
2023-07-29T19:58:19.494Z,100365.66
2023-07-29T20:00:56.587Z,100364.47
2023-07-29T20:03:28.854Z,100378.84
2023-07-29T20:06:02.857Z,100381.97
2023-07-29T20:08:35.030Z,100385.78
2023-07-29T20:11:14.641Z,100378.09
2023-07-29T20:13:49.277Z,100380.81
2023-07-29T20:16:22.688Z,100381.63
2023-07-29T20:18:54.823Z,100381.50
2023-07-29T20:21:29.856Z,100384.59
2023-07-29T20:24:06.265Z,100380.81
2023-07-29T20:26:44.100Z,100387.94
2023-07-29T20:29:16.177Z,100385.91
2023-07-29T20:31:52.842Z,100396.34
2023-07-29T20:34:25.088Z,100391.94
2023-07-29T20:36:57.617Z,100396.84
2023-07-29T20:39:29.717Z,100394.13
2023-07-29T20:42:05.126Z,100391.66
2023-07-29T20:44:37.200Z,100403.63
2023-07-29T20:47:11.776Z,100394.75
2023-07-29T20:49:47.703Z,100384.31
2023-07-29T20:52:20.200Z,100380.38
2023-07-29T20:54:52.357Z,100383.56
2023-07-29T20:57:27.807Z,100382.53
2023-07-29T21:00:00.921Z,100400.28
2023-07-29T21:02:33.590Z,100398.84
2023-07-29T21:05:06.735Z,100395.44
2023-07-29T21:07:39.142Z,100388.41
2023-07-29T21:10:11.455Z,100396.28
2023-07-29T21:12:46.559Z,100388.56
2023-07-29T21:15:19.034Z,100389.16
2023-07-29T21:20:40.157Z,100391.19
2023-07-29T21:23:12.642Z,100393.31
2023-07-29T21:25:52.783Z,100394.06
2023-07-29T21:28:30.150Z,100393.38
2023-07-29T21:31:02.711Z,100393.97
2023-07-29T21:33:35.300Z,100392.72
2023-07-29T21:36:08.362Z,100387.50
2023-07-29T21:38:42.350Z,100395.06
2023-07-29T21:41:14.718Z,100395.28
2023-07-29T21:43:49.942Z,100402.63
2023-07-29T21:46:22.179Z,100409.00
2023-07-29T21:48:54.703Z,100427.13
2023-07-29T21:51:27.579Z,100423.50
2023-07-29T21:54:00.051Z,100416.53
2023-07-29T21:56:33.716Z,100426.75
2023-07-29T21:59:09.079Z,100419.56
2023-07-29T22:01:41.497Z,100420.63
2023-07-29T22:04:14.027Z,100414.19
2023-07-29T22:06:46.199Z,100413.72
2023-07-29T22:09:19.048Z,100408.75
2023-07-29T22:11:54.066Z,100413.59
2023-07-29T22:14:29.888Z,100418.06
2023-07-29T22:17:02.023Z,100410.25
2023-07-29T22:19:34.572Z,100424.50
2023-07-29T22:22:26.452Z,100420.31
2023-07-29T22:24:59.048Z,100414.66
2023-07-29T22:27:31.360Z,100417.22
2023-07-29T22:30:13.637Z,100420.41
2023-07-29T22:32:46.521Z,100423.66
2023-07-29T22:35:19.584Z,100417.75
2023-07-29T22:37:51.740Z,100422.75
2023-07-29T22:40:24.205Z,100426.75
2023-07-29T22:42:56.318Z,100429.25
2023-07-29T22:45:31.458Z,100422.75
2023-07-29T22:48:03.596Z,100421.09
2023-07-29T22:50:36.258Z,100416.69
2023-07-29T22:53:10.422Z,100418.88
2023-07-29T22:55:45.538Z,100420.59
2023-07-29T22:58:18.020Z,100431.50
2023-07-29T23:00:55.861Z,100424.88
2023-07-29T23:03:28.872Z,100425.31
2023-07-29T23:06:01.491Z,100439.50
2023-07-29T23:08:33.676Z,100428.75
2023-07-29T23:11:06.599Z,100442.16
2023-07-29T23:13:38.424Z,100442.13
2023-07-29T23:16:41.723Z,100449.19
2023-07-29T23:19:13.458Z,100437.50
2023-07-29T23:21:45.542Z,100442.34
2023-07-29T23:24:17.342Z,100449.72
2023-07-29T23:26:52.131Z,100442.78
2023-07-29T23:29:25.789Z,100451.63
2023-07-29T23:32:03.936Z,100459.16
2023-07-29T23:34:35.802Z,100456.28
2023-07-29T23:37:08.884Z,100456.69
2023-07-29T23:39:40.660Z,100453.56
2023-07-29T23:42:12.837Z,100452.78
2023-07-29T23:44:44.895Z,100455.97
2023-07-29T23:47:19.667Z,100449.44
2023-07-29T23:49:51.385Z,100455.50
2023-07-29T23:52:24.699Z,100461.78
2023-07-29T23:55:14.911Z,100462.59
2023-07-29T23:57:49.724Z,100458.69
